createdAt,value
2018-07-21T00:02:25.580Z,97649.12
2018-07-21T00:04:54.771Z,97650.20
2018-07-21T00:07:23.803Z,97653.45
2018-07-21T00:09:52.868Z,97650.48
2018-07-21T00:12:22.309Z,97655.05
2018-07-21T00:14:51.236Z,97649.34
2018-07-21T00:17:20.400Z,97654.79
2018-07-21T00:19:49.789Z,97648.97
2018-07-21T00:22:18.987Z,97641.59
2018-07-21T00:24:48.288Z,97647.71
2018-07-21T00:27:17.361Z,97646.23
2018-07-21T00:29:46.777Z,97642.64
2018-07-21T00:32:16.233Z,97643.19
2018-07-21T00:34:45.582Z,97639.88
2018-07-21T00:37:14.932Z,97643.19
2018-07-21T00:39:44.249Z,97642.56
2018-07-21T00:42:13.577Z,97641.45
2018-07-21T00:44:42.804Z,97641.70
2018-07-21T00:47:11.920Z,97647.44
2018-07-21T00:49:40.951Z,97638.77
2018-07-21T00:52:10.201Z,97649.69
2018-07-21T00:54:39.478Z,97644.47
2018-07-21T00:57:08.501Z,97644.19
2018-07-21T00:59:37.453Z,97643.84
2018-07-21T01:02:06.783Z,97638.20
2018-07-21T01:04:36.124Z,97639.12
2018-07-21T01:07:05.373Z,97635.09
2018-07-21T01:09:34.659Z,97646.64
2018-07-21T01:12:04.018Z,97637.06
2018-07-21T01:14:33.144Z,97641.38
2018-07-21T01:17:02.383Z,97636.69
2018-07-21T01:19:31.679Z,97633.05
2018-07-21T01:22:00.931Z,97641.48
2018-07-21T01:24:30.123Z,97642.05
2018-07-21T01:26:59.426Z,97636.93
2018-07-21T01:29:28.756Z,97641.50
2018-07-21T01:31:58.041Z,97646.71
2018-07-21T01:34:27.415Z,97649.42
2018-07-21T01:36:56.689Z,97644.34
2018-07-21T01:39:26.030Z,97639.13
2018-07-21T01:41:55.040Z,97646.36
2018-07-21T01:44:25.353Z,97646.79
2018-07-21T01:46:54.641Z,97642.34
2018-07-21T01:49:24.040Z,97646.30
2018-07-21T01:51:53.391Z,97649.17
2018-07-21T01:54:22.285Z,97649.59
2018-07-21T01:56:51.435Z,97643.43
2018-07-21T01:59:20.831Z,97652.94
2018-07-21T02:01:50.068Z,97647.00
2018-07-21T02:04:19.036Z,97648.05
2018-07-21T02:06:48.221Z,97643.80
2018-07-21T02:09:17.411Z,97648.05
2018-07-21T02:11:46.594Z,97646.34
2018-07-21T02:14:15.820Z,97644.44
2018-07-21T02:16:44.846Z,97647.66
2018-07-21T02:19:14.073Z,97646.03
2018-07-21T02:21:43.044Z,97651.23
2018-07-21T02:24:12.290Z,97652.87
2018-07-21T02:26:41.647Z,97654.25
2018-07-21T02:29:10.791Z,97659.36
2018-07-21T02:31:40.078Z,97657.97
2018-07-21T02:34:09.542Z,97666.30
2018-07-21T02:36:38.763Z,97668.73
2018-07-21T02:39:10.916Z,97672.91
2018-07-21T02:41:40.463Z,97667.28
2018-07-21T02:44:09.679Z,97665.66
2018-07-21T02:46:39.062Z,97667.89
2018-07-21T02:49:08.196Z,97670.12
2018-07-21T02:51:37.563Z,97671.11
2018-07-21T02:54:06.788Z,97673.62
2018-07-21T02:56:36.009Z,97673.45
2018-07-21T02:59:05.120Z,97669.78
2018-07-21T03:01:34.307Z,97671.84
2018-07-21T03:04:03.326Z,97678.88
2018-07-21T03:06:32.614Z,97676.58
2018-07-21T03:09:01.864Z,97670.61
2018-07-21T03:11:31.121Z,97675.99
2018-07-21T03:14:00.635Z,97676.78
2018-07-21T03:16:30.120Z,97674.06
2018-07-21T03:18:59.505Z,97676.32
2018-07-21T03:21:28.595Z,97680.16
2018-07-21T03:23:57.662Z,97683.03
2018-07-21T03:26:27.056Z,97685.15
2018-07-21T03:28:56.252Z,97681.57
2018-07-21T03:31:25.648Z,97682.52
2018-07-21T03:33:54.808Z,97683.64
2018-07-21T03:36:24.207Z,97687.66
2018-07-21T03:38:53.400Z,97687.61
2018-07-21T03:41:22.782Z,97686.64
2018-07-21T03:43:52.215Z,97683.97
2018-07-21T03:46:21.666Z,97686.16
2018-07-21T03:48:50.630Z,97686.51
2018-07-21T03:51:19.837Z,97685.45
2018-07-21T03:53:49.199Z,97685.88
2018-07-21T03:56:18.556Z,97684.16
2018-07-21T03:58:47.719Z,97688.41
2018-07-21T04:01:17.071Z,97688.47
2018-07-21T04:03:45.905Z,97688.08
2018-07-21T04:06:14.976Z,97687.59
2018-07-21T04:08:44.476Z,97686.20
2018-07-21T04:11:13.821Z,97690.03
2018-07-21T04:13:43.028Z,97692.31
2018-07-21T04:16:12.017Z,97690.05
2018-07-21T04:18:41.343Z,97697.90
2018-07-21T04:21:10.616Z,97699.81
2018-07-21T04:23:39.907Z,97692.38
2018-07-21T04:26:09.096Z,97698.80
2018-07-21T04:28:38.340Z,97696.41
2018-07-21T04:31:08.055Z,97699.72
2018-07-21T04:33:37.316Z,97699.86
2018-07-21T04:36:06.395Z,97701.34
2018-07-21T04:38:35.751Z,97701.92
2018-07-21T04:41:05.115Z,97707.20
2018-07-21T04:43:34.169Z,97698.92
2018-07-21T04:46:03.208Z,97709.94
2018-07-21T04:48:32.185Z,97707.48
2018-07-21T04:51:01.225Z,97714.19
2018-07-21T04:53:30.568Z,97714.75
2018-07-21T04:55:59.792Z,97716.31
2018-07-21T04:58:29.122Z,97714.70
2018-07-21T05:00:58.402Z,97719.30
2018-07-21T05:03:27.570Z,97719.02
2018-07-21T05:05:57.036Z,97721.08
2018-07-21T05:08:26.645Z,97718.18
2018-07-21T05:10:55.754Z,97724.22
2018-07-21T05:13:25.188Z,97721.98
2018-07-21T05:15:54.351Z,97725.64
2018-07-21T05:18:23.608Z,97732.25
2018-07-21T05:20:52.618Z,97731.42
2018-07-21T05:23:21.512Z,97730.16
2018-07-21T05:25:50.755Z,97732.13
2018-07-21T05:28:19.699Z,97732.77
2018-07-21T05:30:48.971Z,97737.91
2018-07-21T05:33:17.940Z,97735.30
2018-07-21T05:35:47.278Z,97738.17
2018-07-21T05:38:16.615Z,97734.08
2018-07-21T05:40:45.754Z,97732.09
2018-07-21T05:43:15.037Z,97741.27
2018-07-21T05:45:44.413Z,97733.22
2018-07-21T05:48:13.607Z,97734.15
2018-07-21T05:50:42.828Z,97742.42
2018-07-21T05:53:12.244Z,97736.98
2018-07-21T05:55:41.471Z,97739.26
2018-07-21T05:58:10.858Z,97740.16
2018-07-21T06:00:40.117Z,97751.75
2018-07-21T06:03:09.524Z,97746.94
2018-07-21T06:05:38.472Z,97760.22
2018-07-21T06:08:07.969Z,97757.72
2018-07-21T06:10:36.871Z,97753.37
2018-07-21T06:13:06.341Z,97750.67
2018-07-21T06:15:35.639Z,97750.83
2018-07-21T06:18:04.993Z,97757.23
2018-07-21T06:20:34.470Z,97748.88
2018-07-21T06:23:03.899Z,97749.64
2018-07-21T06:25:33.348Z,97755.72
2018-07-21T06:28:02.824Z,97760.49
2018-07-21T06:30:32.001Z,97758.69
2018-07-21T06:33:01.350Z,97758.42
2018-07-21T06:35:30.734Z,97750.94
2018-07-21T06:37:59.891Z,97752.80
2018-07-21T06:40:29.168Z,97752.52
2018-07-21T06:42:58.649Z,97746.30
2018-07-21T06:45:28.131Z,97748.42
2018-07-21T06:47:57.451Z,97752.60
2018-07-21T06:50:26.805Z,97748.11
2018-07-21T06:52:56.120Z,97750.16
2018-07-21T06:55:25.484Z,97750.08
2018-07-21T06:57:54.703Z,97749.90
2018-07-21T07:00:23.723Z,97751.30
2018-07-21T07:02:52.875Z,97747.16
2018-07-21T07:05:21.996Z,97750.88
2018-07-21T07:07:51.189Z,97755.61
2018-07-21T07:10:20.524Z,97745.88
2018-07-21T07:12:49.583Z,97746.34
2018-07-21T07:15:18.872Z,97747.66
2018-07-21T07:17:47.872Z,97749.27
2018-07-21T07:20:17.017Z,97744.47
2018-07-21T07:22:46.408Z,97741.94
2018-07-21T07:25:15.760Z,97742.38
2018-07-21T07:27:45.109Z,97743.31
2018-07-21T07:30:14.510Z,97743.88
2018-07-21T07:32:43.472Z,97742.73
2018-07-21T07:35:12.525Z,97737.91
2018-07-21T07:37:41.703Z,97742.64
2018-07-21T07:40:10.751Z,97734.40
2018-07-21T07:42:40.133Z,97740.37
2018-07-21T07:45:09.475Z,97741.11
2018-07-21T07:47:38.614Z,97733.47
2018-07-21T07:50:07.746Z,97733.31
2018-07-21T07:52:37.028Z,97730.00
2018-07-21T07:55:06.248Z,97730.53
2018-07-21T07:57:35.868Z,97722.48
2018-07-21T08:00:05.833Z,97724.53
2018-07-21T08:02:34.864Z,97716.93
2018-07-21T08:05:04.139Z,97715.02
2018-07-21T08:07:33.345Z,97720.08
2018-07-21T08:10:02.326Z,97715.63
2018-07-21T08:12:31.407Z,97720.52
2018-07-21T08:15:00.249Z,97725.16
2018-07-21T08:17:29.444Z,97712.12
2018-07-21T08:19:58.699Z,97717.95
2018-07-21T08:22:28.009Z,97716.92
2018-07-21T08:24:57.345Z,97707.48
2018-07-21T08:27:26.645Z,97706.89
2018-07-21T08:29:56.033Z,97703.88
2018-07-21T08:32:25.447Z,97706.29
2018-07-21T08:34:54.745Z,97711.91
2018-07-21T08:37:23.768Z,97711.44
2018-07-21T08:39:53.163Z,97711.16
2018-07-21T08:42:22.344Z,97715.22
2018-07-21T08:44:51.697Z,97708.30
2018-07-21T08:47:20.714Z,97715.35
2018-07-21T08:49:50.090Z,97708.60
2018-07-21T08:52:19.069Z,97710.11
2018-07-21T08:54:48.330Z,97711.63
2018-07-21T08:57:17.718Z,97707.10
2018-07-21T08:59:46.927Z,97705.39
2018-07-21T09:02:16.183Z,97701.03
2018-07-21T09:04:45.158Z,97702.38
2018-07-21T09:07:14.391Z,97702.24
2018-07-21T09:09:43.602Z,97706.13
2018-07-21T09:12:13.000Z,97701.06
2018-07-21T09:14:42.477Z,97694.97
2018-07-21T09:17:11.748Z,97694.59
2018-07-21T09:19:40.887Z,97692.59
2018-07-21T09:22:10.150Z,97698.65
2018-07-21T09:24:39.294Z,97696.95
2018-07-21T09:27:08.190Z,97702.67
2018-07-21T09:29:37.145Z,97699.35
2018-07-21T09:32:06.391Z,97702.66
2018-07-21T09:34:35.783Z,97704.19
2018-07-21T09:37:05.132Z,97702.80
2018-07-21T09:39:34.361Z,97698.14
2018-07-21T09:42:03.676Z,97700.25
2018-07-21T09:44:32.935Z,97699.59
2018-07-21T09:47:02.310Z,97694.73
2018-07-21T09:49:31.424Z,97698.02
2018-07-21T09:52:00.260Z,97702.13
2018-07-21T09:54:29.356Z,97694.58
2018-07-21T09:56:58.642Z,97700.52
2018-07-21T09:59:27.893Z,97693.41
2018-07-21T10:01:57.344Z,97699.72
2018-07-21T10:04:26.710Z,97694.27
2018-07-21T10:06:56.135Z,97702.91
2018-07-21T10:09:25.200Z,97703.70
2018-07-21T10:11:54.458Z,97704.44
2018-07-21T10:14:23.667Z,97711.55
2018-07-21T10:16:52.923Z,97700.17
2018-07-21T10:19:22.178Z,97702.48
2018-07-21T10:21:51.372Z,97709.84
2018-07-21T10:25:28.509Z,97706.66
2018-07-21T10:28:02.835Z,97710.88
2018-07-21T10:30:32.328Z,97709.23
2018-07-21T10:33:01.549Z,97709.86
2018-07-21T10:35:30.853Z,97706.25
2018-07-21T10:38:00.150Z,97706.01
2018-07-21T10:40:29.499Z,97695.09
2018-07-21T10:42:58.706Z,97698.47
2018-07-21T10:45:28.361Z,97697.99
2018-07-21T10:47:57.585Z,97695.44
2018-07-21T10:50:26.860Z,97697.26
2018-07-21T10:52:55.839Z,97688.17
2018-07-21T10:55:24.940Z,97690.54
2018-07-21T10:57:54.422Z,97686.06
2018-07-21T11:00:23.731Z,97684.80
2018-07-21T11:02:53.244Z,97678.78
2018-07-21T11:05:22.275Z,97677.23
2018-07-21T11:07:51.341Z,97676.02
2018-07-21T11:10:20.630Z,97667.15
2018-07-21T11:12:49.736Z,97671.02
2018-07-21T11:15:18.740Z,97677.30
2018-07-21T11:17:48.127Z,97678.50
2018-07-21T11:20:17.624Z,97675.27
2018-07-21T11:22:46.966Z,97673.25
2018-07-21T11:25:16.202Z,97676.63
2018-07-21T11:27:45.588Z,97681.44
2018-07-21T11:30:14.607Z,97682.14
2018-07-21T11:32:43.860Z,97679.25
2018-07-21T11:35:13.238Z,97679.50
2018-07-21T11:37:42.439Z,97681.52
2018-07-21T11:40:11.637Z,97676.00
2018-07-21T11:42:40.825Z,97682.11
2018-07-21T11:45:10.064Z,97680.47
2018-07-21T11:47:39.568Z,97679.00
2018-07-21T11:50:08.511Z,97683.42
2018-07-21T11:52:37.420Z,97684.70
2018-07-21T11:55:07.036Z,97686.00
2018-07-21T11:57:36.456Z,97687.66
2018-07-21T12:00:05.791Z,97680.68
2018-07-21T12:02:35.073Z,97680.09
2018-07-21T12:05:04.184Z,97680.99
2018-07-21T12:07:33.358Z,97679.66
2018-07-21T12:10:02.852Z,97674.63
2018-07-21T12:12:32.105Z,97668.13
2018-07-21T12:15:01.548Z,97667.72
2018-07-21T12:17:30.902Z,97668.08
2018-07-21T12:19:59.923Z,97663.30
2018-07-21T12:22:29.137Z,97665.09
2018-07-21T12:24:58.471Z,97661.20
2018-07-21T12:27:27.872Z,97663.84
2018-07-21T12:29:56.954Z,97657.30
2018-07-21T12:32:26.251Z,97649.01
2018-07-21T12:34:55.159Z,97649.84
2018-07-21T12:37:24.442Z,97650.20
2018-07-21T12:39:53.608Z,97656.67
2018-07-21T12:42:23.033Z,97654.02
2018-07-21T12:44:52.363Z,97654.34
2018-07-21T12:47:21.491Z,97651.16
2018-07-21T12:49:50.604Z,97647.56
2018-07-21T12:52:20.000Z,97649.19
2018-07-21T12:54:49.219Z,97649.70
2018-07-21T12:57:18.403Z,97643.27
2018-07-21T12:59:47.726Z,97651.97
2018-07-21T13:02:16.864Z,97646.96
2018-07-21T13:04:46.029Z,97642.02
2018-07-21T13:07:15.037Z,97643.72
2018-07-21T13:09:44.772Z,97643.98
2018-07-21T13:12:14.199Z,97645.92
2018-07-21T13:14:43.543Z,97640.59
2018-07-21T13:17:13.217Z,97642.12
2018-07-21T13:19:42.470Z,97637.27
2018-07-21T13:22:11.595Z,97627.50
2018-07-21T13:24:40.960Z,97621.05
2018-07-21T13:27:10.316Z,97621.91
2018-07-21T13:29:39.540Z,97624.71
2018-07-21T13:32:08.897Z,97624.14
2018-07-21T13:34:38.215Z,97625.78
2018-07-21T13:37:07.663Z,97620.83
2018-07-21T13:39:36.804Z,97612.70
2018-07-21T13:42:05.838Z,97609.91
2018-07-21T13:44:35.054Z,97613.06
2018-07-21T13:47:04.460Z,97604.31
2018-07-21T13:49:33.644Z,97610.27
2018-07-21T13:52:02.988Z,97605.45
2018-07-21T13:54:32.436Z,97611.44
2018-07-21T13:57:01.748Z,97608.79
2018-07-21T13:59:31.129Z,97607.52
2018-07-21T14:02:00.590Z,97600.27
2018-07-21T14:04:30.017Z,97604.86
2018-07-21T14:06:58.953Z,97602.92
2018-07-21T14:09:28.083Z,97606.61
2018-07-21T14:11:57.323Z,97601.27
2018-07-21T14:14:26.620Z,97604.44
2018-07-21T14:16:55.845Z,97608.08
2018-07-21T14:19:25.283Z,97606.77
2018-07-21T14:21:55.252Z,97607.55
2018-07-21T14:24:24.803Z,97598.72
2018-07-21T14:26:54.263Z,97596.42
2018-07-21T14:29:23.565Z,97594.73
2018-07-21T14:31:52.532Z,97599.55
2018-07-21T14:34:21.785Z,97594.70
2018-07-21T14:36:51.048Z,97595.59
2018-07-21T14:39:20.340Z,97602.59
2018-07-21T14:41:49.845Z,97603.39
2018-07-21T14:44:19.070Z,97608.82
2018-07-21T14:46:48.419Z,97600.35
2018-07-21T14:49:17.406Z,97606.16
2018-07-21T14:51:46.457Z,97594.50
2018-07-21T14:54:15.969Z,97596.52
2018-07-21T14:56:45.457Z,97601.01
2018-07-21T14:59:14.756Z,97599.92
2018-07-21T15:01:44.020Z,97608.81
2018-07-21T15:04:13.458Z,97609.22
2018-07-21T15:06:42.561Z,97607.47
2018-07-21T15:09:12.504Z,97607.12
2018-07-21T15:11:41.704Z,97604.27
2018-07-21T15:14:11.008Z,97607.94
2018-07-21T15:16:40.369Z,97597.19
2018-07-21T15:19:09.707Z,97600.42
2018-07-21T15:21:39.064Z,97606.81
2018-07-21T15:24:08.530Z,97598.05
2018-07-21T15:26:37.911Z,97602.58
2018-07-21T15:29:07.203Z,97602.11
2018-07-21T15:31:36.571Z,97603.61
2018-07-21T15:34:05.965Z,97595.72
2018-07-21T15:36:35.115Z,97600.50
2018-07-21T15:39:05.021Z,97597.41
2018-07-21T15:41:34.367Z,97602.30
2018-07-21T15:44:03.774Z,97597.08
2018-07-21T15:46:32.922Z,97601.49
2018-07-21T15:49:02.279Z,97603.10
2018-07-21T15:51:31.182Z,97598.72
2018-07-21T15:54:00.495Z,97596.45
2018-07-21T15:56:29.807Z,97598.81
2018-07-21T15:58:58.940Z,97602.23
2018-07-21T16:01:28.214Z,97597.30
2018-07-21T16:03:57.177Z,97596.80
2018-07-21T16:06:26.540Z,97590.97
2018-07-21T16:08:55.974Z,97595.17
2018-07-21T16:11:24.820Z,97602.52
2018-07-21T16:13:54.056Z,97592.92
2018-07-21T16:16:23.560Z,97590.05
2018-07-21T16:18:52.599Z,97593.82
2018-07-21T16:21:21.629Z,97592.05
2018-07-21T16:23:50.920Z,97588.94
2018-07-21T16:26:20.022Z,97597.81
2018-07-21T16:28:49.340Z,97597.92
2018-07-21T16:31:18.828Z,97601.70
2018-07-21T16:33:48.073Z,97596.22
2018-07-21T16:36:17.498Z,97598.34
2018-07-21T16:38:46.798Z,97604.64
2018-07-21T16:41:16.039Z,97604.02
2018-07-21T16:43:45.218Z,97605.25
2018-07-21T16:46:14.042Z,97606.51
2018-07-21T16:48:43.115Z,97607.98
2018-07-21T16:51:12.220Z,97610.22
2018-07-21T16:53:41.326Z,97610.31
2018-07-21T16:56:10.390Z,97611.21
2018-07-21T16:58:39.542Z,97611.98
2018-07-21T17:01:08.550Z,97615.94
2018-07-21T17:03:37.676Z,97610.93
2018-07-21T17:06:06.918Z,97615.36
2018-07-21T17:08:36.012Z,97611.69
2018-07-21T17:11:05.362Z,97608.56
2018-07-21T17:13:34.674Z,97610.47
2018-07-21T17:16:03.907Z,97617.59
2018-07-21T17:18:32.989Z,97603.78
2018-07-21T17:21:02.227Z,97616.32
2018-07-21T17:23:31.144Z,97610.30
2018-07-21T17:26:00.453Z,97618.96
2018-07-21T17:28:29.543Z,97620.52
2018-07-21T17:30:58.578Z,97624.62
2018-07-21T17:33:27.614Z,97630.57
2018-07-21T17:35:56.359Z,97633.13
2018-07-21T17:38:25.664Z,97632.45
2018-07-21T17:40:54.451Z,97634.02
2018-07-21T17:43:23.496Z,97631.34
2018-07-21T17:45:52.638Z,97642.30
2018-07-21T17:48:21.972Z,97636.05
2018-07-21T17:50:51.220Z,97635.38
2018-07-21T17:53:20.072Z,97636.01
2018-07-21T17:55:49.358Z,97633.48
2018-07-21T17:58:18.411Z,97636.67
2018-07-21T18:00:47.654Z,97637.81
2018-07-21T18:03:16.857Z,97646.55
2018-07-21T18:05:46.247Z,97648.17
2018-07-21T18:08:15.552Z,97643.56
2018-07-21T18:10:44.751Z,97645.19
2018-07-21T18:13:13.761Z,97649.86
2018-07-21T18:15:43.078Z,97650.81
2018-07-21T18:18:12.232Z,97651.86
2018-07-21T18:20:41.576Z,97652.83
2018-07-21T18:23:10.662Z,97660.92
2018-07-21T18:25:40.050Z,97659.41
2018-07-21T18:28:09.202Z,97659.32
2018-07-21T18:30:38.541Z,97658.42
2018-07-21T18:33:07.607Z,97667.11
2018-07-21T18:35:36.376Z,97673.95
2018-07-21T18:38:05.491Z,97675.89
2018-07-21T18:40:34.730Z,97676.30
2018-07-21T18:43:03.639Z,97680.06
2018-07-21T18:45:32.818Z,97676.77
2018-07-21T18:48:01.855Z,97677.23
2018-07-21T18:50:31.060Z,97684.77
2018-07-21T18:52:59.991Z,97679.34
2018-07-21T18:55:29.212Z,97688.59
2018-07-21T18:57:58.187Z,97688.16
2018-07-21T19:00:27.368Z,97692.68
2018-07-21T19:02:56.510Z,97691.54
2018-07-21T19:05:25.550Z,97688.67
2018-07-21T19:07:54.674Z,97688.28
2018-07-21T19:10:23.773Z,97690.04
2018-07-21T19:12:52.802Z,97693.86
2018-07-21T19:15:26.844Z,97696.61
2018-07-21T19:17:55.820Z,97698.27
2018-07-21T19:20:30.121Z,97690.45
2018-07-21T19:22:59.111Z,97691.22
2018-07-21T19:26:34.904Z,97692.28
2018-07-21T19:29:04.021Z,97689.71
2018-07-21T19:31:33.323Z,97691.78
2018-07-21T19:34:02.368Z,97695.01
2018-07-21T19:36:31.451Z,97699.02
2018-07-21T19:39:00.798Z,97695.53
2018-07-21T19:41:34.677Z,97697.59
2018-07-21T19:44:03.652Z,97699.41
2018-07-21T19:46:32.832Z,97693.43
2018-07-21T19:49:02.107Z,97691.36
2018-07-21T19:51:31.109Z,97694.62
2018-07-21T19:53:59.916Z,97692.52
2018-07-21T19:56:29.226Z,97699.70
2018-07-21T19:58:58.370Z,97698.97
2018-07-21T20:01:27.166Z,97697.88
2018-07-21T20:03:56.056Z,97707.83
2018-07-21T20:06:25.080Z,97707.46
2018-07-21T20:08:54.150Z,97707.91
2018-07-21T20:11:23.426Z,97706.51
2018-07-21T20:13:52.579Z,97707.91
2018-07-21T20:16:21.818Z,97706.09
2018-07-21T20:18:50.898Z,97702.62
2018-07-21T20:21:20.010Z,97707.59
2018-07-21T20:23:49.074Z,97707.89
2018-07-21T20:26:18.179Z,97703.12
2018-07-21T20:28:47.340Z,97715.80
2018-07-21T20:31:16.206Z,97707.11
2018-07-21T20:33:45.421Z,97709.91
2018-07-21T20:36:14.634Z,97710.80
2018-07-21T20:38:43.478Z,97710.02
2018-07-21T20:41:12.598Z,97706.55
2018-07-21T20:43:41.674Z,97704.23
2018-07-21T20:46:10.902Z,97698.05
2018-07-21T20:48:40.171Z,97702.14
2018-07-21T20:51:09.632Z,97697.67
2018-07-21T20:53:38.746Z,97698.11
2018-07-21T20:56:07.634Z,97696.65
2018-07-21T20:58:36.352Z,97695.41
2018-07-21T21:01:05.510Z,97693.59
2018-07-21T21:03:34.543Z,97694.23
2018-07-21T21:06:03.662Z,97690.14
2018-07-21T21:08:32.538Z,97686.18
2018-07-21T21:11:01.778Z,97690.33
2018-07-21T21:13:30.580Z,97688.23
2018-07-21T21:15:59.569Z,97683.15
2018-07-21T21:18:28.599Z,97679.13
2018-07-21T21:20:57.348Z,97679.18
2018-07-21T21:23:26.326Z,97683.14
2018-07-21T21:25:55.418Z,97680.88
2018-07-21T21:28:24.702Z,97674.74
2018-07-21T21:30:53.972Z,97675.74
2018-07-21T21:33:23.204Z,97673.55
2018-07-21T21:35:52.137Z,97671.43
2018-07-21T21:38:21.111Z,97674.32
2018-07-21T21:40:50.251Z,97674.40
2018-07-21T21:43:19.636Z,97670.63
2018-07-21T21:45:48.443Z,97665.22
2018-07-21T21:48:17.663Z,97668.95
2018-07-21T21:50:46.729Z,97664.11
2018-07-21T21:53:15.822Z,97659.20
2018-07-21T21:55:45.023Z,97652.34
2018-07-21T21:58:14.127Z,97649.31
2018-07-21T22:01:17.506Z,97656.34
2018-07-21T22:03:46.452Z,97650.25
2018-07-21T22:06:15.811Z,97657.74
2018-07-21T22:08:45.065Z,97655.81
2018-07-21T22:11:13.865Z,97650.52
2018-07-21T22:13:43.030Z,97658.38
2018-07-21T22:16:12.268Z,97647.63
2018-07-21T22:18:41.459Z,97650.59
2018-07-21T22:21:10.225Z,97641.13
2018-07-21T22:23:39.198Z,97647.13
2018-07-21T22:26:08.507Z,97642.65
2018-07-21T22:28:37.533Z,97650.09
2018-07-21T22:31:06.774Z,97650.89
2018-07-21T22:33:35.602Z,97650.05
2018-07-21T22:36:04.799Z,97648.21
2018-07-21T22:38:33.624Z,97645.45
2018-07-21T22:41:02.366Z,97648.97
2018-07-21T22:43:31.212Z,97644.63
2018-07-21T22:46:00.406Z,97643.20
2018-07-21T22:48:29.626Z,97636.84
2018-07-21T22:50:58.674Z,97641.62
2018-07-21T22:53:28.041Z,97636.17
2018-07-21T22:55:57.255Z,97641.68
2018-07-21T22:58:26.361Z,97643.59
2018-07-21T23:00:55.318Z,97641.57
2018-07-21T23:03:24.538Z,97639.86
2018-07-21T23:05:53.753Z,97643.72
2018-07-21T23:08:22.963Z,97638.13
2018-07-21T23:10:51.866Z,97640.52
2018-07-21T23:13:20.715Z,97635.01
2018-07-21T23:15:50.005Z,97631.47
2018-07-21T23:18:19.350Z,97635.67
2018-07-21T23:20:48.407Z,97640.27
2018-07-21T23:23:17.625Z,97640.55
2018-07-21T23:25:46.822Z,97638.83
2018-07-21T23:28:15.889Z,97637.06
2018-07-21T23:30:45.091Z,97628.45
2018-07-21T23:33:14.279Z,97635.18
2018-07-21T23:35:43.405Z,97633.58
2018-07-21T23:38:12.571Z,97631.46
2018-07-21T23:40:41.739Z,97630.63
2018-07-21T23:43:10.762Z,97628.84
2018-07-21T23:45:39.862Z,97627.41
2018-07-21T23:48:08.862Z,97630.13
2018-07-21T23:50:38.186Z,97631.05
2018-07-21T23:53:07.112Z,97631.05
2018-07-21T23:55:36.239Z,97632.05
2018-07-21T23:58:05.774Z,97631.33
